Time;durP1;ratioP1;P1;durP2;ratioP2;P2;SDS_P1;SDS_P2;PMS_P1;PMS_P2;Temp;Humidity;BMP_temperature;BMP_pressure;BME280_temperature;BME280_humidity;BME280_pressure;Samples;Min_cycle;Max_cycle;Signal;HPM_P1;HPM_P2
2023/08/15 00:01:42;;;;;;;0.38;0.30;;;18.20;99.90;;;;;;5154312;27;20343;-63
2023/08/15 00:04:08;;;;;;;0.80;0.73;;;18.30;99.90;;;;;;5153775;27;20146;-62
2023/08/15 00:06:33;;;;;;;0.55;0.55;;;17.90;99.90;;;;;;5153772;27;20051;-62
2023/08/15 00:09:00;;;;;;;10.93;0.63;;;18.50;99.90;;;;;;5154337;27;20043;-63
2023/08/15 00:11:25;;;;;;;0.10;0.10;;;18.60;99.90;;;;;;5153806;27;20795;-62
2023/08/15 00:13:55;;;;;;;0.20;0.20;;;18.20;99.90;;;;;;5154512;27;20050;-63
2023/08/15 00:16:21;;;;;;;0.30;0.30;;;18.00;99.90;;;;;;5154273;27;20082;-63
2023/08/15 00:18:47;;;;;;;0.30;0.30;;;18.40;99.90;;;;;;5154424;27;20078;-62
2023/08/15 00:21:13;;;;;;;4.18;1.27;;;18.20;99.90;;;;;;5154498;27;20491;-63
2023/08/15 00:23:38;;;;;;;0.50;0.50;;;18.30;99.90;;;;;;5154086;27;20398;-62
2023/08/15 00:26:04;;;;;;;0.20;0.20;;;18.20;99.90;;;;;;5135849;27;20054;-64
2023/08/15 00:28:30;;;;;;;0.10;0.10;;;18.10;99.90;;;;;;5153957;27;20035;-63
2023/08/15 00:30:55;;;;;;;0.30;0.30;;;18.00;99.90;;;;;;5154289;27;20770;-63
2023/08/15 00:33:21;;;;;;;0.25;0.25;;;18.20;99.90;;;;;;5153824;27;20050;-62
2023/08/15 00:35:47;;;;;;;0.40;0.40;;;18.60;99.90;;;;;;5154456;27;20054;-65
2023/08/15 00:38:12;;;;;;;0.35;0.35;;;17.80;99.90;;;;;;5154617;27;20034;-63
2023/08/15 00:40:41;;;;;;;0.10;0.10;;;18.60;99.90;;;;;;5154430;27;20097;-63
2023/08/15 00:43:08;;;;;;;0.35;0.35;;;18.50;99.90;;;;;;5154252;27;20042;-63
2023/08/15 00:45:37;;;;;;;0.38;0.38;;;18.80;99.90;;;;;;5136076;27;20053;-63
2023/08/15 00:48:04;;;;;;;0.20;0.20;;;18.50;99.90;;;;;;5153914;27;20049;-64
2023/08/15 00:50:30;;;;;;;0.95;0.35;;;18.70;99.90;;;;;;5153528;27;20047;-62
2023/08/15 00:52:55;;;;;;;0.20;0.20;;;18.70;99.90;;;;;;5153592;27;20046;-62
2023/08/15 00:55:21;;;;;;;0.35;0.32;;;18.50;99.90;;;;;;5153756;27;20054;-62
2023/08/15 00:57:47;;;;;;;0.38;0.38;;;18.80;99.90;;;;;;5153579;27;20514;-62
2023/08/15 01:00:14;;;;;;;2.60;0.40;;;18.60;99.90;;;;;;5153379;27;20146;-63
2023/08/15 01:02:40;;;;;;;0.38;0.38;;;18.60;99.90;;;;;;5153294;27;20118;-64
2023/08/15 01:05:07;;;;;;;0.32;0.32;;;18.40;99.90;;;;;;5153310;27;20135;-62
2023/08/15 01:07:33;;;;;;;0.60;0.60;;;18.60;99.90;;;;;;5153363;27;20050;-62
2023/08/15 01:09:58;;;;;;;0.65;0.65;;;18.60;99.90;;;;;;5153564;27;20042;-62
2023/08/15 01:12:57;;;;;;;0.40;0.40;;;18.40;99.90;;;;;;5153096;27;20851;-62
2023/08/15 01:15:29;;;;;;;0.22;0.22;;;18.20;99.90;;;;;;5153669;27;20077;-62
2023/08/15 01:18:08;;;;;;;0.57;0.57;;;18.30;99.90;;;;;;5153458;27;20053;-63
2023/08/15 01:20:36;;;;;;;0.25;0.25;;;18.10;99.90;;;;;;5153121;27;20046;-62
2023/08/15 01:23:06;;;;;;;0.20;0.20;;;18.60;99.90;;;;;;5153097;27;20083;-62
2023/08/15 01:25:32;;;;;;;0.50;0.50;;;18.40;99.90;;;;;;5153054;27;20042;-63
2023/08/15 01:27:59;;;;;;;0.30;0.30;;;18.20;99.90;;;;;;5152451;27;20126;-63
2023/08/15 01:30:25;;;;;;;0.22;0.22;;;17.90;99.90;;;;;;5153052;27;20042;-62
2023/08/15 01:33:12;;;;;;;0.65;0.65;;;18.20;99.90;;;;;;5153111;27;20042;-63
2023/08/15 01:35:40;;;;;;;;;;;18.40;99.90;;;;;;5153580;27;20046;-62
2023/08/15 01:38:30;;;;;;;0.47;0.45;;;18.40;99.90;;;;;;5153163;27;19922;-64
2023/08/15 01:41:00;;;;;;;0.30;0.30;;;18.10;99.90;;;;;;5152679;27;20050;-62
2023/08/15 01:43:27;;;;;;;0.60;0.35;;;18.20;99.90;;;;;;5152976;27;20046;-63
2023/08/15 01:45:53;;;;;;;0.55;0.55;;;17.80;99.90;;;;;;5152938;27;20055;-64
2023/08/15 01:48:19;;;;;;;0.30;0.30;;;17.90;99.90;;;;;;5152766;27;20121;-62
2023/08/15 01:50:44;;;;;;;0.35;0.30;;;18.10;99.90;;;;;;5152612;27;20134;-63
2023/08/15 01:53:10;;;;;;;1.23;0.47;;;17.80;99.90;;;;;;5152551;27;20051;-63
2023/08/15 01:55:36;;;;;;;0.45;0.45;;;18.10;99.90;;;;;;5152936;27;20055;-62
2023/08/15 01:58:01;;;;;;;0.30;0.25;;;18.40;99.90;;;;;;5152576;27;20095;-63
2023/08/15 02:00:27;;;;;;;0.10;0.10;;;18.30;99.90;;;;;;5152878;27;20054;-62
2023/08/15 02:02:52;;;;;;;0.25;0.25;;;17.70;99.90;;;;;;5152174;27;20039;-62
2023/08/15 02:05:18;;;;;;;0.10;0.10;;;18.00;99.90;;;;;;5152244;27;20058;-62
2023/08/15 02:07:44;;;;;;;0.32;0.32;;;18.00;99.90;;;;;;5152347;27;20050;-62
2023/08/15 02:10:10;;;;;;;0.25;0.25;;;18.10;99.90;;;;;;5134455;27;20122;-63
2023/08/15 02:12:35;;;;;;;0.93;0.40;;;17.90;99.90;;;;;;5152763;27;20064;-64
2023/08/15 02:15:04;;;;;;;0.20;0.20;;;18.10;99.90;;;;;;5133991;27;20197;-63
2023/08/15 02:17:29;;;;;;;0.22;0.20;;;18.10;99.90;;;;;;5152578;27;20107;-62
2023/08/15 02:19:56;;;;;;;0.40;0.40;;;17.90;99.90;;;;;;5152623;27;20065;-63
2023/08/15 02:22:21;;;;;;;0.40;0.40;;;18.00;99.90;;;;;;5152544;27;20050;-63
2023/08/15 02:24:47;;;;;;;0.88;0.40;;;18.30;99.90;;;;;;5152405;27;20049;-62
2023/08/15 02:27:13;;;;;;;0.85;0.70;;;18.10;99.90;;;;;;5152947;27;20465;-62
2023/08/15 02:29:38;;;;;;;0.20;0.20;;;18.20;99.90;;;;;;5152141;27;20046;-62
2023/08/15 02:32:04;;;;;;;1.65;1.08;;;18.30;99.90;;;;;;5152142;27;20045;-62
2023/08/15 02:34:30;;;;;;;0.38;0.38;;;17.70;99.90;;;;;;5152392;27;20133;-61
2023/08/15 02:36:55;;;;;;;0.43;0.43;;;17.60;99.90;;;;;;5152833;27;20258;-62
2023/08/15 02:39:21;;;;;;;0.35;0.35;;;17.70;99.90;;;;;;5153018;27;20061;-64
2023/08/15 02:41:47;;;;;;;11.05;1.35;;;17.70;99.90;;;;;;5120622;27;20050;-62
2023/08/15 02:44:12;;;;;;;0.45;0.45;;;17.60;99.90;;;;;;5156475;27;20072;-63
2023/08/15 02:46:38;;;;;;;0.25;0.25;;;17.50;99.90;;;;;;5156236;27;20664;-64
2023/08/15 02:49:05;;;;;;;0.98;0.65;;;17.60;99.90;;;;;;5156594;27;20038;-62
2023/08/15 02:51:31;;;;;;;0.40;0.40;;;17.50;99.90;;;;;;5156378;27;20046;-63
2023/08/15 02:53:57;;;;;;;0.70;0.70;;;17.60;99.90;;;;;;5156567;27;20474;-63
2023/08/15 02:56:23;;;;;;;0.10;0.10;;;17.60;99.90;;;;;;5156240;27;20142;-62
2023/08/15 02:58:49;;;;;;;0.40;0.40;;;17.30;99.90;;;;;;5156037;27;20471;-63
2023/08/15 03:01:14;;;;;;;0.73;0.55;;;17.50;99.90;;;;;;5155358;27;20054;-63
2023/08/15 03:03:40;;;;;;;1.17;1.17;;;17.10;99.90;;;;;;5155563;27;20489;-61
2023/08/15 03:06:06;;;;;;;0.40;0.40;;;17.10;99.90;;;;;;5155794;27;20114;-63
2023/08/15 03:08:31;;;;;;;0.63;0.63;;;17.20;99.90;;;;;;5156081;27;20042;-62
2023/08/15 03:11:00;;;;;;;0.30;0.30;;;17.40;99.90;;;;;;5156224;27;20050;-62
2023/08/15 03:13:25;;;;;;;0.95;0.30;;;16.80;99.90;;;;;;5155661;27;20035;-62
2023/08/15 03:15:53;;;;;;;0.30;0.30;;;17.30;99.90;;;;;;5155406;27;20103;-63
2023/08/15 03:18:19;;;;;;;0.63;0.57;;;17.00;99.90;;;;;;5155820;27;20054;-62
2023/08/15 03:20:53;;;;;;;0.40;0.40;;;17.10;99.90;;;;;;5155707;27;20049;-61
2023/08/15 03:23:19;;;;;;;0.63;0.57;;;17.10;99.90;;;;;;5155307;27;20039;-62
2023/08/15 03:25:52;;;;;;;0.47;0.47;;;16.90;99.90;;;;;;5155561;27;20470;-62
2023/08/15 03:28:18;;;;;;;0.50;0.50;;;17.30;99.90;;;;;;5155831;27;20111;-63
2023/08/15 03:30:43;;;;;;;0.40;0.40;;;17.20;99.90;;;;;;5155472;27;20486;-62
2023/08/15 03:33:09;;;;;;;0.25;0.25;;;17.20;99.90;;;;;;5155429;27;20074;-62
2023/08/15 03:35:35;;;;;;;0.63;0.63;;;17.40;99.90;;;;;;5154978;27;20042;-62
2023/08/15 03:38:00;;;;;;;0.45;0.40;;;17.40;99.90;;;;;;5155406;27;20049;-62
2023/08/15 03:40:26;;;;;;;0.45;0.40;;;17.00;99.90;;;;;;5155246;27;20093;-62
2023/08/15 03:42:52;;;;;;;0.30;0.30;;;17.20;99.90;;;;;;5155369;27;20043;-63
2023/08/15 03:45:18;;;;;;;2.58;0.47;;;17.20;99.90;;;;;;5154855;27;20088;-62
2023/08/15 03:47:43;;;;;;;0.60;0.60;;;17.30;99.90;;;;;;5154833;27;20054;-63
2023/08/15 03:50:09;;;;;;;0.40;0.40;;;16.90;99.90;;;;;;5154935;27;20110;-63
2023/08/15 03:52:35;;;;;;;0.30;0.30;;;17.40;99.90;;;;;;5154650;27;20034;-62
2023/08/15 03:55:02;;;;;;;0.98;0.60;;;17.20;99.90;;;;;;5155293;27;20394;-61
2023/08/15 03:57:28;;;;;;;0.52;0.52;;;17.40;99.90;;;;;;5155079;27;20051;-62
2023/08/15 03:59:53;;;;;;;0.60;0.60;;;17.20;99.90;;;;;;5155006;27;20049;-62
2023/08/15 04:02:19;;;;;;;0.43;0.43;;;17.30;99.90;;;;;;5154384;27;20051;-62
2023/08/15 04:04:44;;;;;;;0.57;0.55;;;17.50;99.90;;;;;;5154622;27;20055;-64
2023/08/15 04:07:10;;;;;;;0.32;0.32;;;17.70;99.90;;;;;;5154582;27;20087;-62
2023/08/15 04:09:36;;;;;;;0.75;0.50;;;17.20;99.90;;;;;;5155168;27;20065;-62
2023/08/15 04:12:01;;;;;;;0.25;0.25;;;17.40;99.90;;;;;;5154316;27;20051;-62
2023/08/15 04:14:27;;;;;;;0.45;0.45;;;17.60;99.90;;;;;;5154324;27;20046;-63
2023/08/15 04:16:53;;;;;;;0.17;0.17;;;17.50;99.90;;;;;;5154755;27;20132;-62
2023/08/15 04:19:18;;;;;;;0.28;0.28;;;17.20;99.90;;;;;;5154615;27;20043;-61
2023/08/15 04:21:45;;;;;;;0.50;0.50;;;17.60;99.90;;;;;;5154389;27;20130;-62
2023/08/15 04:24:11;;;;;;;1.02;0.93;;;17.40;99.90;;;;;;5154038;27;20042;-63
2023/08/15 04:26:36;;;;;;;0.57;0.57;;;17.60;99.90;;;;;;5154126;27;20421;-62
2023/08/15 04:29:02;;;;;;;0.73;0.73;;;17.80;99.90;;;;;;5154005;27;20073;-64
2023/08/15 04:31:28;;;;;;;0.10;0.10;;;17.60;99.90;;;;;;5153972;27;20082;-62
2023/08/15 04:33:53;;;;;;;1.30;0.65;;;17.30;99.90;;;;;;5135679;27;20041;-61
2023/08/15 04:36:19;;;;;;;0.50;0.50;;;17.10;99.90;;;;;;5154298;27;20039;-63
2023/08/15 04:38:45;;;;;;;0.80;0.55;;;17.30;99.90;;;;;;5154548;27;20129;-62
2023/08/15 04:41:11;;;;;;;0.30;0.30;;;17.20;99.90;;;;;;5154184;27;20082;-61
2023/08/15 04:43:37;;;;;;;0.20;0.20;;;17.50;99.90;;;;;;5154200;27;20062;-62
2023/08/15 04:46:03;;;;;;;0.20;0.20;;;17.00;99.90;;;;;;5153864;27;20499;-62
2023/08/15 04:48:28;;;;;;;0.38;0.38;;;17.30;99.90;;;;;;5153853;27;20050;-64
2023/08/15 04:50:54;;;;;;;0.30;0.30;;;17.60;99.90;;;;;;5153940;27;20515;-62
2023/08/15 04:53:19;;;;;;;0.30;0.30;;;17.10;99.90;;;;;;5153760;27;20064;-62
2023/08/15 04:55:45;;;;;;;0.30;0.30;;;16.90;99.90;;;;;;5153809;27;20042;-61
2023/08/15 04:58:11;;;;;;;0.50;0.50;;;17.40;99.90;;;;;;5154294;27;20122;-61
2023/08/15 05:00:37;;;;;;;0.30;0.30;;;17.70;99.90;;;;;;5154170;27;20062;-62
2023/08/15 05:03:02;;;;;;;0.45;0.43;;;17.40;99.90;;;;;;5152878;27;20047;-62
2023/08/15 05:05:28;;;;;;;1.17;0.85;;;17.00;99.90;;;;;;5153412;27;20066;-62
2023/08/15 05:07:54;;;;;;;3.10;0.70;;;17.30;99.90;;;;;;5153770;27;20128;-62
2023/08/15 05:10:19;;;;;;;0.43;0.43;;;17.30;99.90;;;;;;5153675;27;20082;-64
2023/08/15 05:12:45;;;;;;;0.20;0.20;;;17.50;99.90;;;;;;5153700;27;20497;-61
2023/08/15 05:15:11;;;;;;;0.22;0.22;;;17.30;99.90;;;;;;5153313;27;20103;-62
2023/08/15 05:17:37;;;;;;;0.20;0.20;;;17.20;99.90;;;;;;5153239;27;20063;-62
2023/08/15 05:20:04;;;;;;;0.70;0.43;;;17.60;99.90;;;;;;5153412;27;20135;-63
2023/08/15 05:22:30;;;;;;;15.57;0.70;;;17.50;99.90;;;;;;5153066;27;20047;-63
2023/08/15 05:24:56;;;;;;;0.85;0.50;;;17.80;99.90;;;;;;5153167;27;20130;-62
2023/08/15 05:27:22;;;;;;;0.35;0.35;;;17.60;99.90;;;;;;5135192;27;20134;-62
2023/08/15 05:29:47;;;;;;;0.35;0.35;;;17.40;99.90;;;;;;5152935;27;20486;-62
2023/08/15 05:32:13;;;;;;;0.20;0.20;;;18.00;99.90;;;;;;5153446;27;20592;-63
2023/08/15 05:34:39;;;;;;;0.32;0.32;;;17.90;99.90;;;;;;5153284;27;20466;-62
2023/08/15 05:37:04;;;;;;;0.22;0.22;;;17.20;99.90;;;;;;5152845;27;20042;-61
2023/08/15 05:39:30;;;;;;;1.25;0.43;;;17.60;99.90;;;;;;5152353;27;20051;-61
2023/08/15 05:41:56;;;;;;;1.08;0.98;;;17.70;99.90;;;;;;5153283;27;20241;-61
2023/08/15 05:44:21;;;;;;;0.60;0.60;;;17.90;99.90;;;;;;5152703;27;20049;-61
2023/08/15 05:46:47;;;;;;;0.60;0.40;;;17.40;99.90;;;;;;5153023;27;20046;-62
2023/08/15 05:49:12;;;;;;;0.10;0.10;;;17.20;99.90;;;;;;5153082;27;20138;-62
2023/08/15 05:51:39;;;;;;;0.35;0.30;;;17.60;99.90;;;;;;5152942;27;20050;-63
2023/08/15 05:54:04;;;;;;;0.63;0.63;;;17.60;99.90;;;;;;5153135;27;20506;-62
2023/08/15 05:56:30;;;;;;;0.10;0.10;;;17.60;99.90;;;;;;5153232;27;20126;-62
2023/08/15 05:58:56;;;;;;;0.10;0.10;;;17.30;99.90;;;;;;5153047;27;20074;-62
2023/08/15 06:01:22;;;;;;;0.38;0.38;;;17.80;99.90;;;;;;5152177;27;20078;-62
2023/08/15 06:03:48;;;;;;;0.10;0.10;;;17.50;99.90;;;;;;5152405;27;20050;-62
2023/08/15 06:06:14;;;;;;;0.77;0.50;;;17.50;99.90;;;;;;5152217;27;20054;-64
2023/08/15 06:08:39;;;;;;;0.10;0.10;;;17.80;99.90;;;;;;5152206;27;20061;-63
2023/08/15 06:11:05;;;;;;;0.10;0.10;;;16.90;99.90;;;;;;5142692;27;20091;-63
2023/08/15 06:13:31;;;;;;;0.40;0.40;;;18.00;99.90;;;;;;5152266;27;20039;-61
2023/08/15 06:15:57;;;;;;;0.63;0.45;;;17.50;99.90;;;;;;5150513;27;20155;-62
2023/08/15 06:18:23;;;;;;;0.30;0.30;;;17.50;99.90;;;;;;5150941;27;20042;-63
2023/08/15 06:20:49;;;;;;;0.10;0.10;;;18.00;99.90;;;;;;5151732;27;20051;-62
2023/08/15 06:23:14;;;;;;;0.50;0.50;;;18.40;99.90;;;;;;5152094;27;20110;-62
2023/08/15 06:25:40;;;;;;;0.52;0.52;;;17.70;99.90;;;;;;5149976;27;20050;-63
2023/08/15 06:28:08;;;;;;;0.20;0.20;;;18.40;99.90;;;;;;5151313;27;20225;-63
2023/08/15 06:30:34;;;;;;;0.10;0.10;;;18.70;99.90;;;;;;5151310;27;20584;-62
2023/08/15 06:32:59;;;;;;;0.65;0.63;;;18.00;99.90;;;;;;5151342;27;20047;-62
2023/08/15 06:35:28;;;;;;;0.75;0.50;;;18.20;99.90;;;;;;5150857;27;20446;-63
2023/08/15 06:37:54;;;;;;;0.40;0.40;;;18.80;99.90;;;;;;5150922;27;20055;-61
2023/08/15 06:40:20;;;;;;;3.20;0.85;;;18.30;99.90;;;;;;5150783;27;20561;-63
2023/08/15 06:42:46;;;;;;;0.32;0.32;;;18.40;99.90;;;;;;5151207;27;20092;-62
2023/08/15 06:45:12;;;;;;;0.40;0.40;;;19.20;99.90;;;;;;5151616;27;20039;-64
2023/08/15 06:47:38;;;;;;;0.22;0.20;;;18.70;99.90;;;;;;5150866;27;20039;-62
2023/08/15 06:50:05;;;;;;;0.10;0.10;;;18.50;99.90;;;;;;5151685;27;20078;-63
2023/08/15 06:52:31;;;;;;;0.70;0.70;;;19.20;99.90;;;;;;5129210;27;20502;-63
2023/08/15 06:54:57;;;;;;;0.43;0.43;;;19.20;99.90;;;;;;5140537;27;20153;-63
2023/08/15 06:57:22;;;;;;;1.48;0.57;;;19.40;99.90;;;;;;5150500;27;20051;-62
2023/08/15 06:59:48;;;;;;;0.38;0.38;;;19.60;99.90;;;;;;5151004;27;20054;-61
2023/08/15 07:02:14;;;;;;;0.30;0.30;;;19.40;99.90;;;;;;5132206;27;20073;-63
2023/08/15 07:04:40;;;;;;;0.20;0.20;;;19.60;99.90;;;;;;5151023;27;20094;-62
2023/08/15 07:07:09;;;;;;;0.10;0.10;;;19.50;99.90;;;;;;5130920;27;20102;-62
2023/08/15 07:09:35;;;;;;;0.75;0.75;;;19.90;99.90;;;;;;5139320;27;20050;-62
2023/08/15 07:12:07;;;;;;;0.30;0.30;;;19.40;99.90;;;;;;5151381;27;20107;-62
2023/08/15 07:14:33;;;;;;;0.10;0.10;;;19.70;99.90;;;;;;5150630;27;20094;-60
2023/08/15 07:16:59;;;;;;;1.10;1.02;;;20.20;99.90;;;;;;5139223;27;20047;-63
2023/08/15 07:19:25;;;;;;;0.38;0.38;;;20.30;99.90;;;;;;5150482;27;20055;-65
2023/08/15 07:21:51;;;;;;;0.20;0.20;;;19.80;99.90;;;;;;5151665;27;20134;-61
2023/08/15 07:24:17;;;;;;;0.40;0.30;;;19.90;99.90;;;;;;5150947;27;20086;-61
2023/08/15 07:26:43;;;;;;;0.45;0.45;;;19.90;99.90;;;;;;5152221;27;20393;-61
2023/08/15 07:29:09;;;;;;;1.25;0.55;;;20.00;99.90;;;;;;5153998;27;20367;-60
2023/08/15 07:31:35;;;;;;;0.15;0.15;;;20.00;99.90;;;;;;5153883;27;20050;-62
2023/08/15 07:34:01;;;;;;;2.67;1.58;;;19.60;99.90;;;;;;5155068;27;20081;-60
2023/08/15 07:36:26;;;;;;;0.10;0.10;;;20.00;99.90;;;;;;5154587;27;20109;-61
2023/08/15 07:38:52;;;;;;;0.20;0.20;;;20.20;99.90;;;;;;5154612;27;20053;-60
2023/08/15 07:41:18;;;;;;;0.10;0.10;;;19.90;99.90;;;;;;5153121;27;20044;-61
2023/08/15 07:43:44;;;;;;;0.30;0.15;;;20.30;99.90;;;;;;5134974;27;20142;-61
2023/08/15 07:46:09;;;;;;;0.10;0.10;;;20.40;99.90;;;;;;5125411;27;20047;-62
2023/08/15 07:48:35;;;;;;;0.80;0.80;;;20.50;99.90;;;;;;5154220;27;20051;-63
2023/08/15 07:51:01;;;;;;;0.20;0.20;;;20.90;99.90;;;;;;5152833;27;20046;-62
2023/08/15 07:53:26;;;;;;;0.22;0.22;;;20.90;99.90;;;;;;5151253;27;20038;-63
2023/08/15 07:55:52;;;;;;;0.93;0.40;;;20.70;99.90;;;;;;5150768;27;20046;-62
2023/08/15 07:58:18;;;;;;;0.10;0.10;;;21.10;99.90;;;;;;5154446;27;20054;-61
2023/08/15 08:00:43;;;;;;;4.57;0.75;;;21.30;99.90;;;;;;5154504;27;20054;-63
2023/08/15 08:03:09;;;;;;;0.40;0.40;;;21.10;99.90;;;;;;5154138;27;20086;-59
2023/08/15 08:05:35;;;;;;;0.15;0.15;;;20.80;99.90;;;;;;5133989;27;20487;-62
2023/08/15 08:08:01;;;;;;;0.20;0.20;;;20.60;99.90;;;;;;5129495;27;20047;-67
2023/08/15 08:10:27;;;;;;;0.20;0.20;;;20.60;99.90;;;;;;5151539;27;20042;-62
2023/08/15 08:12:53;;;;;;;0.28;0.28;;;20.90;99.90;;;;;;5154524;27;20039;-62
2023/08/15 08:15:23;;;;;;;0.73;0.73;;;20.40;99.90;;;;;;5135190;27;20054;-65
2023/08/15 08:17:49;;;;;;;1.30;0.68;;;20.70;99.90;;;;;;5153887;27;20133;-62
2023/08/15 08:20:17;;;;;;;0.15;0.15;;;20.70;99.90;;;;;;5149521;27;20054;-62
2023/08/15 08:22:43;;;;;;;5.18;0.35;;;21.00;99.90;;;;;;5153320;27;20047;-62
2023/08/15 08:25:23;;;;;;;0.10;0.10;;;21.30;99.90;;;;;;5152966;27;20043;-63
2023/08/15 08:27:49;;;;;;;0.22;0.22;;;21.50;99.90;;;;;;5153291;27;20053;-63
2023/08/15 08:30:20;;;;;;;0.20;0.20;;;21.40;99.90;;;;;;5152110;27;20050;-64
2023/08/15 08:32:46;;;;;;;2.75;0.95;;;21.20;99.90;;;;;;5153426;27;20047;-63
2023/08/15 08:35:15;;;;;;;0.10;0.10;;;21.00;99.90;;;;;;5153305;27;20042;-62
2023/08/15 08:37:41;;;;;;;0.45;0.45;;;21.20;99.90;;;;;;5152993;27;20057;-64
2023/08/15 08:40:09;;;;;;;0.17;0.17;;;20.80;99.90;;;;;;5152647;27;20399;-62
2023/08/15 08:42:35;;;;;;;0.30;0.30;;;20.80;99.90;;;;;;5153049;27;20050;-62
2023/08/15 08:45:02;;;;;;;0.10;0.10;;;20.90;99.90;;;;;;5152747;27;20135;-63
2023/08/15 08:47:30;;;;;;;0.22;0.22;;;21.20;99.90;;;;;;5153383;27;20038;-62
2023/08/15 08:49:59;;;;;;;0.22;0.20;;;21.20;99.90;;;;;;5152465;27;20046;-62
2023/08/15 08:52:26;;;;;;;0.47;0.38;;;21.80;99.90;;;;;;5152542;27;20110;-63
2023/08/15 08:54:52;;;;;;;0.10;0.10;;;21.30;99.90;;;;;;5150229;27;20047;-63
2023/08/15 08:57:20;;;;;;;0.10;0.10;;;21.90;99.90;;;;;;5152129;27;20414;-65
2023/08/15 08:59:46;;;;;;;1.35;0.35;;;21.70;99.90;;;;;;5153708;27;20603;-62
2023/08/15 09:02:16;;;;;;;0.50;0.50;;;21.70;99.90;;;;;;5134664;27;20122;-62
2023/08/15 09:04:42;;;;;;;0.20;0.20;;;21.40;99.90;;;;;;5152685;27;20485;-62
2023/08/15 09:07:07;;;;;;;0.10;0.10;;;21.40;99.90;;;;;;5153178;27;20111;-63
2023/08/15 09:09:33;;;;;;;0.10;0.10;;;21.80;99.90;;;;;;5152614;27;20106;-64
2023/08/15 09:11:59;;;;;;;0.10;0.10;;;21.50;99.90;;;;;;5152287;27;20103;-62
2023/08/15 09:14:25;;;;;;;0.10;0.10;;;21.90;99.90;;;;;;5152608;27;20039;-62
2023/08/15 09:16:50;;;;;;;0.22;0.22;;;21.80;99.90;;;;;;5152902;27;20050;-61
2023/08/15 09:19:17;;;;;;;0.52;0.52;;;22.10;99.90;;;;;;5153150;27;20573;-64
2023/08/15 09:21:44;;;;;;;0.10;0.10;;;21.70;99.90;;;;;;5152600;27;20045;-63
2023/08/15 09:24:10;;;;;;;0.15;0.15;;;22.00;99.90;;;;;;5134159;27;20122;-62
2023/08/15 09:26:36;;;;;;;0.10;0.10;;;22.10;99.90;;;;;;5152870;27;20046;-62
2023/08/15 09:29:03;;;;;;;0.68;0.47;;;22.20;99.90;;;;;;5152673;27;20135;-62
2023/08/15 09:31:29;;;;;;;0.10;0.10;;;22.40;99.90;;;;;;5152423;27;20046;-62
2023/08/15 09:33:55;;;;;;;0.15;0.15;;;22.70;99.90;;;;;;5152459;27;20043;-62
2023/08/15 09:36:23;;;;;;;0.05;0.05;;;22.60;99.90;;;;;;5152422;27;20077;-63
2023/08/15 09:38:51;;;;;;;0.40;0.40;;;22.20;99.90;;;;;;5152127;27;20054;-62
2023/08/15 09:41:17;;;;;;;0.30;0.25;;;22.30;99.90;;;;;;5152534;27;20050;-62
2023/08/15 09:43:54;;;;;;;0.20;0.20;;;22.50;99.90;;;;;;5152300;27;20039;-62
2023/08/15 09:46:20;;;;;;;0.35;0.35;;;22.40;99.90;;;;;;5151263;27;20605;-63
2023/08/15 09:48:47;;;;;;;0.98;0.25;;;22.40;99.90;;;;;;5151938;27;20046;-62
2023/08/15 09:51:18;;;;;;;0.03;0.03;;;22.70;99.90;;;;;;5151838;27;20098;-62
2023/08/15 09:53:46;;;;;;;0.10;0.10;;;22.30;99.90;;;;;;5151447;27;20454;-63
2023/08/15 09:56:16;;;;;;;0.20;0.20;;;22.20;99.90;;;;;;5151145;27;20058;-63
2023/08/15 09:58:42;;;;;;;0.10;0.10;;;21.90;99.90;;;;;;5151988;27;20086;-62
2023/08/15 10:01:09;;;;;;;0.20;0.15;;;22.10;99.90;;;;;;5152169;27;20551;-64
2023/08/15 10:03:40;;;;;;;0.10;0.10;;;22.10;99.90;;;;;;5152164;27;20069;-62
2023/08/15 10:06:10;;;;;;;0.25;0.25;;;22.40;99.90;;;;;;5150903;27;20090;-62
2023/08/15 10:08:37;;;;;;;0.75;0.40;;;22.20;99.90;;;;;;5151235;27;20066;-63
2023/08/15 10:11:07;;;;;;;0.22;0.22;;;22.20;99.90;;;;;;5133626;27;20046;-63
2023/08/15 10:13:36;;;;;;;0.20;0.20;;;22.30;99.90;;;;;;5152362;27;20057;-63
2023/08/15 10:16:04;;;;;;;0.13;0.10;;;22.40;99.90;;;;;;5151917;27;20046;-63
2023/08/15 10:18:31;;;;;;;0.10;0.10;;;22.70;99.90;;;;;;5152196;27;20046;-62
2023/08/15 10:20:58;;;;;;;0.40;0.40;;;22.90;99.90;;;;;;5151549;27;20581;-63
2023/08/15 10:23:34;;;;;;;0.10;0.10;;;23.10;99.90;;;;;;5151744;27;20047;-64
2023/08/15 10:26:01;;;;;;;0.00;0.00;;;23.20;99.90;;;;;;5151831;27;20039;-62
2023/08/15 10:28:29;;;;;;;2.17;0.25;;;23.10;99.90;;;;;;5133729;27;20054;-62
2023/08/15 10:30:55;;;;;;;0.20;0.20;;;23.00;99.90;;;;;;5151870;27;20050;-63
2023/08/15 10:33:23;;;;;;;0.38;0.20;;;23.30;99.90;;;;;;5152250;27;20050;-62
2023/08/15 10:35:54;;;;;;;0.30;0.30;;;23.50;99.90;;;;;;5151308;27;20047;-62
2023/08/15 10:38:55;;;;;;;0.20;0.20;;;23.20;99.90;;;;;;5151795;27;20125;-62
2023/08/15 10:41:21;;;;;;;0.10;0.10;;;23.30;99.90;;;;;;5047153;28;20501;-64
2023/08/15 10:43:49;;;;;;;0.00;0.00;;;23.20;99.90;;;;;;5129102;27;20141;-64
2023/08/15 10:46:17;;;;;;;0.03;0.03;;;23.60;99.90;;;;;;5151420;27;20678;-61
2023/08/15 10:48:47;;;;;;;0.10;0.10;;;23.50;99.90;;;;;;5151360;27;20556;-62
2023/08/15 10:51:18;;;;;;;1.55;0.30;;;23.30;99.90;;;;;;5151744;27;20125;-63
2023/08/15 10:53:46;;;;;;;0.10;0.10;;;23.20;99.90;;;;;;5151781;27;20047;-61
2023/08/15 10:56:12;;;;;;;0.20;0.20;;;23.40;99.90;;;;;;5152077;27;20110;-65
2023/08/15 10:58:38;;;;;;;0.10;0.10;;;23.70;99.90;;;;;;5151444;27;20541;-63
2023/08/15 11:01:04;;;;;;;0.10;0.10;;;23.60;99.90;;;;;;5151216;27;20038;-62
2023/08/15 11:03:30;;;;;;;0.50;0.50;;;23.70;99.90;;;;;;5156352;27;20385;-62
2023/08/15 11:06:09;;;;;;;0.10;0.10;;;23.90;99.90;;;;;;5155713;27;20133;-62
2023/08/15 11:08:41;;;;;;;0.10;0.10;;;23.80;99.90;;;;;;5155926;27;20047;-63
2023/08/15 11:11:07;;;;;;;0.75;0.52;;;23.60;99.90;;;;;;5155880;27;20085;-62
2023/08/15 11:13:39;;;;;;;0.20;0.20;;;23.60;99.90;;;;;;5155510;27;20054;-62
2023/08/15 11:16:07;;;;;;;2.55;0.25;;;23.90;99.90;;;;;;5155632;27;20498;-62
2023/08/15 11:18:34;;;;;;;0.25;0.22;;;24.00;99.90;;;;;;5155911;27;20456;-63
2023/08/15 11:21:01;;;;;;;0.17;0.17;;;24.00;99.90;;;;;;5154444;27;20505;-62
2023/08/15 11:23:28;;;;;;;0.10;0.10;;;24.00;99.90;;;;;;5154873;27;20055;-63
2023/08/15 11:26:14;;;;;;;0.10;0.10;;;23.90;99.90;;;;;;5136832;27;20129;-63
2023/08/15 11:28:40;;;;;;;0.00;0.00;;;24.00;99.90;;;;;;5154775;27;20055;-61
2023/08/15 11:31:14;;;;;;;0.35;0.25;;;23.50;99.90;;;;;;5136299;27;20444;-64
2023/08/15 11:33:40;;;;;;;0.00;0.00;;;23.50;99.90;;;;;;5155124;27;20074;-62
2023/08/15 11:36:09;;;;;;;0.20;0.20;;;23.10;99.90;;;;;;5155377;27;20074;-62
2023/08/15 11:38:36;;;;;;;0.10;0.10;;;23.40;99.90;;;;;;5155143;27;20054;-62
2023/08/15 11:41:03;;;;;;;0.35;0.32;;;23.20;99.90;;;;;;5155394;27;20054;-62
2023/08/15 11:43:30;;;;;;;0.30;0.30;;;23.70;99.90;;;;;;5155369;27;20082;-62
2023/08/15 11:45:56;;;;;;;1.08;0.25;;;23.50;99.90;;;;;;5155219;27;20042;-62
2023/08/15 11:48:22;;;;;;;14.75;1.17;;;23.70;99.90;;;;;;5155154;27;20121;-61
2023/08/15 11:50:50;;;;;;;0.15;0.15;;;23.80;99.90;;;;;;5155303;27;20585;-65
2023/08/15 11:53:17;;;;;;;0.68;0.50;;;23.80;99.90;;;;;;5154983;27;20047;-63
2023/08/15 11:55:45;;;;;;;1.20;0.68;;;23.30;99.90;;;;;;5151785;27;20055;-64
2023/08/15 11:58:30;;;;;;;0.32;0.30;;;23.60;99.90;;;;;;5153222;27;20042;-63
2023/08/15 12:01:05;;;;;;;0.13;0.13;;;23.40;99.90;;;;;;5154295;27;20120;-62
2023/08/15 12:03:31;;;;;;;0.28;0.28;;;23.60;99.90;;;;;;5154555;27;20035;-62
2023/08/15 12:05:58;;;;;;;0.20;0.20;;;23.50;99.90;;;;;;5154464;27;20101;-62
2023/08/15 12:08:29;;;;;;;0.60;0.60;;;23.60;99.90;;;;;;5119499;27;20715;-63
2023/08/15 12:10:57;;;;;;;0.10;0.10;;;23.20;99.90;;;;;;5155211;27;20046;-62
2023/08/15 12:13:36;;;;;;;0.20;0.20;;;23.10;99.90;;;;;;5153558;27;20043;-63
2023/08/15 12:16:03;;;;;;;0.10;0.10;;;23.30;99.90;;;;;;5154077;27;20074;-62
2023/08/15 12:18:30;;;;;;;0.10;0.10;;;23.40;99.90;;;;;;5154502;27;20049;-65
2023/08/15 12:20:55;;;;;;;0.50;0.47;;;23.70;99.90;;;;;;5154418;27;20039;-62
2023/08/15 12:23:22;;;;;;;6.85;0.40;;;24.00;99.90;;;;;;5153766;27;20054;-64
2023/08/15 12:25:48;;;;;;;0.10;0.10;;;23.60;99.90;;;;;;5153368;27;20075;-63
2023/08/15 12:28:13;;;;;;;0.10;0.10;;;23.70;99.90;;;;;;5154466;27;20392;-65
2023/08/15 12:30:39;;;;;;;0.08;0.08;;;23.60;99.90;;;;;;5154254;27;20042;-63
2023/08/15 12:33:05;;;;;;;0.10;0.10;;;23.70;99.90;;;;;;5154018;27;20092;-62
2023/08/15 12:35:34;;;;;;;0.10;0.10;;;23.60;99.90;;;;;;5153533;27;20050;-63
2023/08/15 12:38:00;;;;;;;0.00;0.00;;;23.40;99.90;;;;;;5152759;27;20055;-63
2023/08/15 12:40:26;;;;;;;0.25;0.25;;;23.60;99.90;;;;;;5153465;27;20042;-62
2023/08/15 12:42:52;;;;;;;5.18;0.68;;;23.50;99.90;;;;;;5153356;27;20061;-63
2023/08/15 12:45:17;;;;;;;0.40;0.20;;;23.80;99.90;;;;;;5153757;27;20061;-62
2023/08/15 12:47:43;;;;;;;0.40;0.22;;;24.50;99.90;;;;;;5153434;27;20053;-62